createdAt,value
2022-11-09T00:00:02.959Z,99.90
2022-11-09T00:02:08.765Z,99.90
2022-11-09T00:04:13.199Z,99.90
2022-11-09T00:06:17.597Z,99.90
2022-11-09T00:08:21.737Z,99.90
2022-11-09T00:10:26.220Z,99.90
2022-11-09T00:12:30.441Z,99.90
2022-11-09T00:14:34.814Z,99.90
2022-11-09T00:16:40.420Z,99.90
2022-11-09T00:18:47.569Z,99.90
2022-11-09T00:20:51.770Z,99.90
2022-11-09T00:22:56.064Z,99.90
2022-11-09T00:25:00.195Z,99.90
2022-11-09T00:27:04.467Z,99.90
2022-11-09T00:29:08.918Z,99.90
2022-11-09T00:31:14.454Z,99.90
2022-11-09T00:33:20.380Z,99.90
2022-11-09T00:35:24.746Z,99.90
2022-11-09T00:37:31.367Z,99.90
2022-11-09T00:39:35.553Z,99.90
2022-11-09T00:41:39.766Z,99.90
2022-11-09T00:43:43.932Z,99.90
2022-11-09T00:45:49.212Z,99.90
2022-11-09T00:47:53.355Z,99.90
2022-11-09T00:49:59.078Z,99.90
2022-11-09T00:52:03.255Z,99.90
2022-11-09T00:54:08.350Z,99.90
2022-11-09T00:56:14.129Z,99.90
2022-11-09T00:58:19.028Z,99.90
2022-11-09T01:00:25.187Z,99.90
2022-11-09T01:02:32.453Z,99.90
2022-11-09T01:04:36.699Z,99.90
2022-11-09T01:06:42.344Z,99.90
2022-11-09T01:08:48.374Z,99.90
2022-11-09T01:10:53.125Z,99.90
2022-11-09T01:13:00.329Z,99.90
2022-11-09T01:15:04.952Z,99.90
2022-11-09T01:17:11.231Z,99.90
2022-11-09T01:19:15.504Z,99.90
2022-11-09T01:21:19.573Z,99.90
2022-11-09T01:23:25.327Z,99.90
2022-11-09T01:25:30.110Z,99.90
2022-11-09T01:27:34.874Z,99.90
2022-11-09T01:29:39.091Z,99.90
2022-11-09T01:31:43.804Z,99.90
2022-11-09T01:33:48.223Z,99.90
2022-11-09T01:35:52.399Z,99.90
2022-11-09T01:37:56.477Z,99.90
2022-11-09T01:40:02.026Z,99.90
2022-11-09T01:42:09.265Z,99.90
2022-11-09T01:44:15.161Z,99.90
2022-11-09T01:46:25.669Z,99.90
2022-11-09T01:48:37.089Z,99.90
2022-11-09T01:50:45.166Z,99.90
2022-11-09T01:52:50.920Z,99.90
2022-11-09T01:55:00.325Z,99.90
2022-11-09T01:57:11.613Z,99.90
2022-11-09T01:59:20.739Z,99.90
2022-11-09T02:01:25.104Z,99.90
2022-11-09T02:03:34.349Z,99.90
2022-11-09T02:05:40.745Z,99.90
2022-11-09T02:07:47.090Z,99.90
2022-11-09T02:09:57.016Z,99.90
2022-11-09T02:12:02.940Z,99.90
2022-11-09T02:14:09.334Z,99.90
2022-11-09T02:16:15.581Z,99.90
2022-11-09T02:18:20.286Z,99.90
2022-11-09T02:20:26.957Z,99.90
2022-11-09T02:22:31.175Z,99.90
2022-11-09T02:24:35.720Z,99.90
2022-11-09T02:26:47.338Z,99.90
2022-11-09T02:28:52.732Z,99.90
2022-11-09T02:30:58.726Z,99.90
2022-11-09T02:33:04.193Z,99.90
2022-11-09T02:35:09.092Z,99.90
2022-11-09T02:37:27.442Z,99.90
2022-11-09T02:39:32.180Z,99.90
2022-11-09T02:41:41.533Z,99.90
2022-11-09T02:43:45.909Z,99.90
2022-11-09T02:45:51.429Z,99.90
2022-11-09T02:47:56.949Z,99.90
2022-11-09T02:50:01.197Z,99.90
2022-11-09T02:52:07.031Z,99.90
2022-11-09T02:54:12.628Z,99.90
2022-11-09T02:56:17.926Z,99.90
2022-11-09T02:58:22.039Z,99.90
2022-11-09T03:00:27.602Z,99.90
2022-11-09T03:02:32.630Z,99.90
2022-11-09T03:04:37.223Z,99.90
2022-11-09T03:06:42.303Z,99.90
2022-11-09T03:08:50.397Z,99.90
2022-11-09T03:10:56.196Z,99.90
2022-11-09T03:13:00.660Z,99.90
2022-11-09T03:15:08.638Z,99.90
2022-11-09T03:17:16.860Z,99.90
2022-11-09T03:19:21.328Z,99.90
2022-11-09T03:21:29.421Z,99.90
2022-11-09T03:23:34.215Z,99.90
2022-11-09T03:25:39.874Z,99.90
2022-11-09T03:27:45.517Z,99.90
2022-11-09T03:29:50.552Z,99.90
2022-11-09T03:31:54.889Z,99.90
2022-11-09T03:33:59.284Z,99.90
2022-11-09T03:36:04.039Z,99.90
2022-11-09T03:38:08.407Z,99.90
2022-11-09T03:40:14.088Z,99.90
2022-11-09T03:42:19.298Z,99.90
2022-11-09T03:44:24.810Z,99.90
2022-11-09T03:46:29.006Z,99.90
2022-11-09T03:48:33.793Z,99.90
2022-11-09T03:50:40.498Z,99.90
2022-11-09T03:52:49.310Z,99.90
2022-11-09T03:54:53.479Z,99.90
2022-11-09T03:56:57.655Z,99.90
2022-11-09T03:59:04.155Z,99.90
2022-11-09T04:01:10.958Z,99.90
2022-11-09T04:03:15.244Z,99.90
2022-11-09T04:05:19.928Z,99.90
2022-11-09T04:07:24.138Z,99.90
2022-11-09T04:09:28.277Z,99.90
2022-11-09T04:11:32.513Z,99.90
2022-11-09T04:13:36.674Z,99.90
2022-11-09T04:15:41.053Z,99.90
2022-11-09T04:17:46.711Z,99.90
2022-11-09T04:19:50.965Z,99.90
2022-11-09T04:21:55.121Z,99.90
2022-11-09T04:23:59.270Z,99.90
2022-11-09T04:26:03.455Z,99.90
2022-11-09T04:28:08.923Z,99.90
2022-11-09T04:30:13.727Z,99.90
2022-11-09T04:32:17.921Z,99.90
2022-11-09T04:34:23.491Z,99.90
2022-11-09T04:36:27.783Z,99.90
2022-11-09T04:38:32.215Z,99.90
2022-11-09T04:40:37.537Z,99.90
2022-11-09T04:42:42.130Z,99.90
2022-11-09T04:44:46.237Z,99.90
2022-11-09T04:46:50.469Z,99.90
2022-11-09T04:48:54.639Z,99.90
2022-11-09T04:51:03.668Z,99.90
2022-11-09T04:53:09.590Z,99.90
2022-11-09T04:55:14.105Z,99.90
2022-11-09T04:57:18.514Z,99.90
2022-11-09T04:59:22.739Z,99.90
2022-11-09T05:01:26.926Z,99.90
2022-11-09T05:03:31.215Z,99.90
2022-11-09T05:05:36.742Z,99.90
2022-11-09T05:07:42.354Z,99.90
2022-11-09T05:09:46.706Z,99.90
2022-11-09T05:11:53.219Z,99.90
2022-11-09T05:13:57.435Z,99.90
2022-11-09T05:16:02.916Z,99.90
2022-11-09T05:18:09.144Z,99.90
2022-11-09T05:20:14.012Z,99.90
2022-11-09T05:22:35.617Z,99.90
2022-11-09T05:24:41.251Z,99.90
2022-11-09T05:26:50.610Z,99.90
2022-11-09T05:28:57.651Z,99.90
2022-11-09T05:31:03.538Z,99.90
2022-11-09T05:33:07.843Z,99.90
2022-11-09T05:35:12.112Z,99.90
2022-11-09T05:37:17.612Z,99.90
2022-11-09T05:39:21.903Z,99.90
2022-11-09T05:41:27.839Z,99.90
2022-11-09T05:43:32.037Z,99.90
2022-11-09T05:45:44.662Z,99.90
2022-11-09T05:47:49.530Z,99.90
2022-11-09T05:49:54.195Z,99.90
2022-11-09T05:51:58.920Z,99.90
2022-11-09T05:54:03.643Z,99.90
2022-11-09T05:56:10.678Z,99.90
2022-11-09T05:58:16.604Z,99.90
2022-11-09T06:00:21.837Z,99.90
2022-11-09T06:02:27.550Z,99.90
2022-11-09T06:04:31.771Z,99.90
2022-11-09T06:06:35.925Z,99.90
2022-11-09T06:08:40.289Z,99.90
2022-11-09T06:10:44.756Z,99.90
2022-11-09T06:12:52.074Z,99.90
2022-11-09T06:14:58.390Z,99.90
2022-11-09T06:17:02.604Z,99.90
2022-11-09T06:19:06.936Z,99.90
2022-11-09T06:21:11.869Z,99.90
2022-11-09T06:23:16.276Z,99.90
2022-11-09T06:25:20.582Z,99.90
2022-11-09T06:27:25.006Z,99.90
2022-11-09T06:29:29.593Z,99.90
2022-11-09T06:31:35.291Z,99.90
2022-11-09T06:33:39.689Z,99.90
2022-11-09T06:35:44.075Z,99.90
2022-11-09T06:37:48.197Z,99.90
2022-11-09T06:39:52.943Z,99.90
2022-11-09T06:41:57.287Z,99.90
2022-11-09T06:44:02.238Z,99.90
2022-11-09T06:46:06.938Z,99.90
2022-11-09T06:48:12.577Z,99.90
2022-11-09T06:50:16.955Z,99.90
2022-11-09T06:52:21.015Z,99.90
2022-11-09T06:54:25.170Z,99.90
2022-11-09T06:56:29.312Z,99.90
2022-11-09T06:58:33.792Z,99.90
2022-11-09T07:00:38.773Z,99.90
2022-11-09T07:02:44.281Z,99.90
2022-11-09T07:04:52.779Z,99.90
2022-11-09T07:06:57.386Z,99.90
2022-11-09T07:09:01.547Z,99.90
2022-11-09T07:11:06.966Z,99.90
2022-11-09T07:13:12.645Z,99.90
2022-11-09T07:15:18.570Z,99.90
2022-11-09T07:17:23.030Z,99.90
2022-11-09T07:19:27.351Z,99.90
2022-11-09T07:21:33.126Z,99.90
2022-11-09T07:23:40.075Z,99.90
2022-11-09T07:25:44.662Z,99.90
2022-11-09T07:27:49.123Z,99.90
2022-11-09T07:29:53.438Z,99.90
2022-11-09T07:31:57.984Z,99.90
2022-11-09T07:34:04.959Z,99.90
2022-11-09T07:36:10.784Z,99.90
2022-11-09T07:38:17.232Z,99.90
2022-11-09T07:40:21.927Z,99.90
2022-11-09T07:42:26.759Z,99.90
2022-11-09T07:44:32.096Z,99.90
2022-11-09T07:46:36.792Z,99.90
2022-11-09T07:48:41.046Z,99.90
2022-11-09T07:50:46.814Z,99.90
2022-11-09T07:52:51.965Z,99.90
2022-11-09T07:54:58.118Z,99.90
2022-11-09T07:57:02.290Z,99.90
2022-11-09T07:59:06.720Z,99.90
2022-11-09T08:01:11.904Z,99.90
2022-11-09T08:03:16.183Z,99.90
2022-11-09T08:05:20.788Z,99.90
2022-11-09T08:07:25.122Z,99.90
2022-11-09T08:09:30.100Z,99.90
2022-11-09T08:11:35.739Z,99.90
2022-11-09T08:13:39.788Z,99.90
2022-11-09T08:15:44.618Z,99.90
2022-11-09T08:17:48.750Z,99.90
2022-11-09T08:19:52.881Z,99.90
2022-11-09T08:21:57.975Z,99.90
2022-11-09T08:24:02.154Z,99.90
2022-11-09T08:26:07.861Z,99.90
2022-11-09T08:28:16.328Z,99.90
2022-11-09T08:30:22.427Z,99.90
2022-11-09T08:32:26.628Z,99.90
2022-11-09T08:34:30.825Z,99.90
2022-11-09T08:36:36.279Z,99.90
2022-11-09T08:38:41.164Z,99.90
2022-11-09T08:40:45.362Z,99.90
2022-11-09T08:42:49.553Z,99.90
2022-11-09T08:44:55.004Z,99.20
2022-11-09T08:46:59.089Z,99.20
2022-11-09T08:49:03.272Z,99.40
2022-11-09T08:51:07.575Z,98.80
2022-11-09T08:53:12.187Z,98.60
2022-11-09T08:55:16.405Z,98.60
2022-11-09T08:57:21.090Z,98.50
2022-11-09T08:59:25.364Z,98.20
2022-11-09T09:01:30.902Z,98.10
2022-11-09T09:03:35.093Z,98.10
2022-11-09T09:05:39.810Z,98.20
2022-11-09T09:07:44.434Z,98.20
2022-11-09T09:09:49.150Z,98.20
2022-11-09T09:11:53.427Z,97.90
2022-11-09T09:13:57.573Z,97.50
2022-11-09T09:16:11.244Z,97.70
2022-11-09T09:18:16.912Z,97.30
2022-11-09T09:20:21.043Z,97.00
2022-11-09T09:22:25.188Z,97.00
2022-11-09T09:24:29.444Z,96.60
2022-11-09T09:26:35.223Z,96.40
2022-11-09T09:28:39.505Z,95.90
2022-11-09T09:30:43.633Z,95.90
2022-11-09T09:32:47.877Z,95.70
2022-11-09T09:34:53.362Z,95.40
2022-11-09T09:36:57.542Z,96.00
2022-11-09T09:39:01.662Z,96.20
2022-11-09T09:41:08.115Z,96.60
2022-11-09T09:43:32.131Z,96.60
2022-11-09T09:45:41.365Z,97.00
2022-11-09T09:47:51.471Z,97.00
2022-11-09T09:50:01.627Z,97.30
2022-11-09T09:52:15.696Z,97.20
2022-11-09T09:54:22.857Z,97.00
2022-11-09T09:56:31.661Z,96.50
2022-11-09T09:58:39.086Z,96.60
2022-11-09T10:00:44.299Z,96.50
2022-11-09T10:02:49.608Z,96.60
2022-11-09T10:04:57.572Z,96.40
2022-11-09T10:07:08.941Z,96.50
2022-11-09T10:09:25.080Z,96.50
2022-11-09T10:11:38.095Z,96.20
2022-11-09T10:13:57.921Z,96.30
2022-11-09T10:16:11.257Z,96.20
2022-11-09T10:18:27.709Z,96.30
2022-11-09T10:20:53.255Z,95.60
2022-11-09T10:23:08.373Z,95.70
2022-11-09T10:25:32.088Z,95.70
2022-11-09T10:27:49.350Z,95.70
2022-11-09T10:29:53.595Z,96.00
2022-11-09T10:32:02.761Z,95.90
2022-11-09T10:34:18.342Z,95.50
2022-11-09T10:36:33.170Z,95.20
2022-11-09T10:38:43.377Z,95.10
2022-11-09T10:41:17.883Z,95.00
2022-11-09T10:43:40.463Z,94.80
2022-11-09T10:46:05.663Z,94.80
2022-11-09T10:48:34.029Z,94.50
2022-11-09T10:50:56.617Z,94.80
2022-11-09T10:53:22.773Z,94.30
2022-11-09T10:55:53.621Z,94.40
2022-11-09T10:58:26.615Z,95.00
2022-11-09T11:01:04.223Z,95.20
2022-11-09T11:03:27.806Z,95.50
2022-11-09T11:05:58.878Z,96.20
2022-11-09T11:08:25.689Z,96.20
2022-11-09T11:10:49.177Z,96.00
2022-11-09T11:13:25.702Z,96.00
2022-11-09T11:15:48.570Z,95.70
2022-11-09T11:18:20.719Z,95.70
2022-11-09T11:20:43.425Z,95.40
2022-11-09T11:23:14.321Z,95.50
2022-11-09T11:25:53.025Z,95.20
2022-11-09T11:28:23.116Z,94.70
2022-11-09T11:30:45.879Z,94.90
2022-11-09T11:33:16.096Z,94.90
2022-11-09T11:35:44.733Z,94.90
2022-11-09T11:38:20.002Z,94.90
2022-11-09T11:41:07.207Z,95.00
2022-11-09T11:43:43.724Z,94.70
2022-11-09T11:46:15.877Z,94.40
2022-11-09T11:49:08.789Z,94.20
2022-11-09T11:51:41.472Z,94.10
2022-11-09T11:54:15.073Z,93.90
2022-11-09T11:56:43.405Z,94.10
2022-11-09T11:59:26.807Z,94.00
2022-11-09T12:02:16.053Z,94.10
2022-11-09T12:05:20.878Z,93.90
2022-11-09T12:07:57.525Z,94.10
2022-11-09T12:10:31.785Z,94.30
2022-11-09T12:13:03.259Z,94.10
2022-11-09T12:15:37.494Z,94.00
2022-11-09T12:18:15.092Z,94.00
2022-11-09T12:20:44.654Z,93.70
2022-11-09T12:23:35.901Z,93.40
2022-11-09T12:26:14.825Z,93.50
2022-11-09T12:29:09.161Z,94.20
2022-11-09T12:31:44.410Z,94.10
2022-11-09T12:34:17.023Z,94.00
2022-11-09T12:36:44.122Z,94.10
2022-11-09T12:39:14.141Z,94.20
2022-11-09T12:41:39.900Z,93.80
2022-11-09T12:44:07.857Z,93.80
2022-11-09T12:46:36.412Z,93.60
2022-11-09T12:49:03.291Z,93.80
2022-11-09T12:51:26.419Z,94.20
2022-11-09T12:53:48.990Z,93.90
2022-11-09T12:56:18.303Z,93.70
2022-11-09T12:58:41.456Z,93.70
2022-11-09T13:01:07.521Z,93.50
2022-11-09T13:03:32.209Z,93.30
2022-11-09T13:06:17.991Z,93.30
2022-11-09T13:08:42.367Z,93.30
2022-11-09T13:11:23.407Z,93.70
2022-11-09T13:13:47.196Z,93.80
2022-11-09T13:16:34.737Z,93.60
2022-11-09T13:18:57.484Z,93.70
2022-11-09T13:21:39.219Z,94.00
2022-11-09T13:24:27.868Z,94.00
2022-11-09T13:26:59.363Z,93.90
2022-11-09T13:29:27.860Z,93.70
2022-11-09T13:32:31.877Z,93.70
2022-11-09T13:34:57.639Z,93.90
2022-11-09T13:37:47.133Z,94.20
2022-11-09T13:40:41.858Z,94.20
2022-11-09T13:43:07.494Z,94.30
2022-11-09T13:45:35.395Z,94.20
2022-11-09T13:47:58.123Z,93.80
2022-11-09T13:50:24.310Z,94.00
2022-11-09T13:52:51.111Z,94.00
2022-11-09T13:55:32.137Z,93.90
2022-11-09T13:57:56.935Z,94.00
2022-11-09T14:00:23.553Z,94.00
2022-11-09T14:02:54.993Z,94.10
2022-11-09T14:05:31.258Z,94.20
2022-11-09T14:07:56.045Z,94.10
2022-11-09T14:10:43.736Z,94.30
2022-11-09T14:13:32.970Z,94.40
2022-11-09T14:16:02.595Z,94.50
2022-11-09T14:18:38.290Z,94.60
2022-11-09T14:21:22.416Z,94.60
2022-11-09T14:23:45.890Z,94.70
2022-11-09T14:26:09.344Z,94.80
2022-11-09T14:28:34.935Z,94.70
2022-11-09T14:30:58.165Z,94.90
2022-11-09T14:33:24.576Z,94.90
2022-11-09T14:35:48.862Z,95.00
2022-11-09T14:38:21.761Z,95.10
2022-11-09T14:40:47.142Z,95.10
2022-11-09T14:43:28.579Z,95.10
2022-11-09T14:45:53.565Z,95.40
2022-11-09T14:48:19.893Z,95.50
2022-11-09T14:50:42.912Z,95.50
2022-11-09T14:53:07.343Z,95.60
2022-11-09T14:55:33.332Z,95.80
2022-11-09T14:57:57.619Z,95.90
2022-11-09T15:00:29.714Z,95.70
2022-11-09T15:02:52.767Z,95.70
2022-11-09T15:05:47.888Z,95.60
2022-11-09T15:08:20.216Z,95.70
2022-11-09T15:10:51.078Z,95.90
2022-11-09T15:13:14.175Z,95.90
2022-11-09T15:15:38.850Z,96.00
2022-11-09T15:18:03.561Z,96.10
2022-11-09T15:20:30.581Z,96.10
2022-11-09T15:22:55.683Z,96.20
2022-11-09T15:25:28.319Z,96.30
2022-11-09T15:28:19.286Z,96.40
2022-11-09T15:30:46.211Z,96.60
2022-11-09T15:33:25.633Z,96.60
2022-11-09T15:35:52.387Z,96.70
2022-11-09T15:38:37.703Z,96.60
2022-11-09T15:41:00.517Z,96.70
2022-11-09T15:43:25.184Z,96.70
2022-11-09T15:45:48.281Z,96.70
2022-11-09T15:48:11.347Z,96.80
2022-11-09T15:50:34.807Z,96.90
2022-11-09T15:52:57.390Z,96.80
2022-11-09T15:55:22.867Z,96.80
2022-11-09T15:57:46.349Z,96.90
2022-11-09T16:00:19.406Z,97.00
2022-11-09T16:02:43.620Z,97.20
2022-11-09T16:05:07.400Z,97.30
2022-11-09T16:07:30.314Z,97.50
2022-11-09T16:09:53.027Z,97.70
2022-11-09T16:12:16.966Z,98.00
2022-11-09T16:14:40.267Z,98.10
2022-11-09T16:17:05.604Z,98.20
2022-11-09T16:19:28.433Z,98.30
2022-11-09T16:21:53.482Z,98.40
2022-11-09T16:24:18.145Z,98.50
2022-11-09T16:26:40.902Z,98.60
2022-11-09T16:29:03.794Z,98.70
2022-11-09T16:31:48.144Z,99.90
2022-11-09T16:34:12.283Z,99.90
2022-11-09T16:36:38.881Z,98.80
2022-11-09T16:39:09.540Z,98.90
2022-11-09T16:41:32.562Z,98.80
2022-11-09T16:43:55.548Z,99.10
2022-11-09T16:46:23.451Z,99.10
2022-11-09T16:48:46.720Z,99.30
2022-11-09T16:51:11.284Z,99.40
2022-11-09T16:53:34.042Z,99.70
2022-11-09T16:55:57.189Z,99.90
2022-11-09T16:58:20.365Z,99.90
2022-11-09T17:01:09.680Z,99.90
2022-11-09T17:03:29.441Z,99.90
2022-11-09T17:05:52.398Z,99.90
2022-11-09T17:08:16.968Z,99.90
2022-11-09T17:10:43.660Z,99.90
2022-11-09T17:13:07.515Z,99.90
2022-11-09T17:15:29.900Z,99.90
2022-11-09T17:17:52.690Z,99.90
2022-11-09T17:20:16.453Z,99.90
2022-11-09T17:22:45.896Z,99.90
2022-11-09T17:25:16.159Z,99.90
2022-11-09T17:27:40.034Z,99.90
2022-11-09T17:30:03.452Z,99.90
2022-11-09T17:32:28.400Z,99.90
2022-11-09T17:34:51.441Z,99.90
2022-11-09T17:37:14.361Z,99.90
2022-11-09T17:39:37.090Z,99.90
2022-11-09T17:42:02.423Z,99.90
2022-11-09T17:44:25.065Z,99.90
2022-11-09T17:46:47.717Z,99.90
2022-11-09T17:49:10.898Z,99.90
2022-11-09T17:51:33.846Z,99.90
2022-11-09T17:53:57.545Z,99.90
2022-11-09T17:56:20.494Z,99.90
2022-11-09T17:58:46.292Z,99.90
2022-11-09T18:01:10.380Z,99.90
2022-11-09T18:03:33.713Z,99.90
2022-11-09T18:05:56.724Z,99.90
2022-11-09T18:08:20.979Z,99.90
2022-11-09T18:10:45.928Z,99.90
2022-11-09T18:13:09.668Z,99.90
2022-11-09T18:15:35.055Z,99.90
2022-11-09T18:17:57.892Z,99.90
2022-11-09T18:20:20.715Z,99.90
2022-11-09T18:22:43.404Z,99.90
2022-11-09T18:25:06.656Z,99.90
2022-11-09T18:27:30.684Z,99.90
2022-11-09T18:29:56.317Z,99.90
2022-11-09T18:32:20.400Z,99.90
2022-11-09T18:34:43.153Z,99.90
2022-11-09T18:37:07.277Z,99.90
2022-11-09T18:39:31.050Z,99.90
2022-11-09T18:42:00.542Z,99.90
2022-11-09T18:44:23.407Z,99.90
2022-11-09T18:46:46.442Z,99.90
2022-11-09T18:49:14.280Z,99.90
2022-11-09T18:51:40.031Z,99.90
2022-11-09T18:54:02.952Z,99.90
2022-11-09T18:56:26.683Z,99.90
2022-11-09T18:58:50.639Z,99.90
2022-11-09T19:01:13.582Z,99.90
2022-11-09T19:03:36.408Z,99.90
2022-11-09T19:06:01.024Z,99.90
2022-11-09T19:08:38.507Z,99.90
2022-11-09T19:11:06.146Z,99.90
2022-11-09T19:13:28.594Z,99.90
2022-11-09T19:15:54.327Z,99.90
2022-11-09T19:18:20.965Z,99.90
2022-11-09T19:20:44.197Z,99.90
2022-11-09T19:23:08.084Z,99.90
2022-11-09T19:25:30.527Z,99.90
2022-11-09T19:27:53.287Z,99.90
2022-11-09T19:30:15.831Z,99.90
2022-11-09T19:32:38.667Z,99.90
2022-11-09T19:35:01.420Z,99.90
2022-11-09T19:37:24.582Z,99.90
2022-11-09T19:39:49.621Z,99.90
2022-11-09T19:42:13.333Z,99.90
2022-11-09T19:44:36.446Z,99.90
2022-11-09T19:46:59.752Z,99.90
2022-11-09T19:49:23.119Z,99.90
2022-11-09T19:51:45.776Z,99.90
2022-11-09T19:54:09.729Z,99.90
2022-11-09T19:56:37.124Z,99.90
2022-11-09T19:59:02.252Z,99.90
2022-11-09T20:01:25.529Z,99.90
2022-11-09T20:03:50.923Z,99.90
2022-11-09T20:06:13.796Z,99.90
2022-11-09T20:08:37.787Z,99.90
2022-11-09T20:11:06.626Z,99.90
2022-11-09T20:13:29.923Z,99.90
2022-11-09T20:15:52.533Z,99.90
2022-11-09T20:18:15.918Z,99.90
2022-11-09T20:20:38.984Z,99.90
2022-11-09T20:23:02.310Z,99.90
2022-11-09T20:25:25.259Z,99.90
2022-11-09T20:27:48.013Z,99.90
2022-11-09T20:30:14.621Z,99.90
2022-11-09T20:32:37.693Z,99.90
2022-11-09T20:35:00.491Z,99.90
2022-11-09T20:37:23.331Z,99.90
2022-11-09T20:39:46.600Z,99.90
2022-11-09T20:42:09.605Z,99.90
2022-11-09T20:44:32.118Z,99.90
2022-11-09T20:46:56.586Z,99.90
2022-11-09T20:49:19.429Z,99.90
2022-11-09T20:51:42.545Z,99.90
2022-11-09T20:54:07.660Z,99.90
2022-11-09T20:56:31.049Z,99.90
2022-11-09T20:58:54.160Z,99.90
2022-11-09T21:01:20.123Z,99.90
2022-11-09T21:03:45.491Z,99.90
2022-11-09T21:06:09.753Z,99.90
2022-11-09T21:08:33.392Z,99.90
2022-11-09T21:10:56.782Z,99.90
2022-11-09T21:13:19.456Z,99.90
2022-11-09T21:15:42.162Z,99.90
2022-11-09T21:18:05.654Z,99.90
2022-11-09T21:20:30.802Z,99.90
2022-11-09T21:23:12.148Z,99.90
2022-11-09T21:25:55.479Z,99.90
2022-11-09T21:28:35.976Z,99.90
2022-11-09T21:31:02.107Z,99.90
2022-11-09T21:33:24.681Z,99.90
2022-11-09T21:35:48.859Z,99.90
2022-11-09T21:38:11.997Z,99.90
2022-11-09T21:40:35.349Z,99.90
2022-11-09T21:42:58.209Z,99.90
2022-11-09T21:45:21.161Z,99.90
2022-11-09T21:47:43.911Z,99.90
2022-11-09T21:50:12.334Z,99.90
2022-11-09T21:52:37.173Z,99.90
2022-11-09T21:54:59.734Z,99.90
2022-11-09T21:57:22.279Z,99.90
2022-11-09T21:59:45.259Z,99.90
2022-11-09T22:02:11.600Z,99.90
2022-11-09T22:04:34.389Z,99.90
2022-11-09T22:06:57.532Z,99.90
2022-11-09T22:09:21.733Z,99.90
2022-11-09T22:12:01.967Z,99.90
2022-11-09T22:14:41.533Z,99.90
2022-11-09T22:17:05.626Z,99.90
2022-11-09T22:19:50.956Z,99.90
2022-11-09T22:22:14.265Z,99.90
2022-11-09T22:24:38.488Z,99.90
2022-11-09T22:27:01.086Z,99.90
2022-11-09T22:29:24.548Z,99.90
2022-11-09T22:31:48.210Z,99.90
2022-11-09T22:34:11.253Z,99.90
2022-11-09T22:36:33.806Z,99.90
2022-11-09T22:38:57.934Z,99.90
2022-11-09T22:41:24.774Z,99.90
2022-11-09T22:43:48.179Z,99.90
2022-11-09T22:46:13.132Z,99.90
2022-11-09T22:48:37.446Z,99.90
2022-11-09T22:51:00.107Z,99.90
2022-11-09T22:53:23.177Z,99.90
2022-11-09T22:55:53.527Z,99.90
2022-11-09T22:58:18.204Z,99.90
2022-11-09T23:00:41.815Z,99.90
2022-11-09T23:03:05.506Z,99.90
2022-11-09T23:05:28.402Z,99.90
2022-11-09T23:07:51.212Z,99.90
2022-11-09T23:10:13.966Z,99.90
2022-11-09T23:12:37.428Z,99.90
2022-11-09T23:15:12.779Z,99.90
2022-11-09T23:17:54.294Z,99.90
2022-11-09T23:20:17.397Z,99.90
2022-11-09T23:22:40.263Z,99.90
2022-11-09T23:25:20.311Z,99.90
2022-11-09T23:27:42.994Z,99.90
2022-11-09T23:30:08.166Z,99.90
2022-11-09T23:32:30.839Z,99.90
2022-11-09T23:34:53.936Z,99.90
2022-11-09T23:37:17.261Z,99.90
2022-11-09T23:39:39.757Z,99.90
2022-11-09T23:42:03.539Z,99.90
2022-11-09T23:44:26.433Z,99.90
2022-11-09T23:46:51.193Z,99.90
2022-11-09T23:49:13.658Z,99.90
2022-11-09T23:51:36.412Z,99.90
2022-11-09T23:53:59.130Z,99.90
2022-11-09T23:56:22.211Z,99.90
2022-11-09T23:58:47.945Z,99.90
